Time;durP1;ratioP1;P1;durP2;ratioP2;P2;SDS_P1;SDS_P2;PMS_P1;PMS_P2;Temp;Humidity;BMP_temperature;BMP_pressure;BME280_temperature;BME280_humidity;BME280_pressure;Samples;Min_cycle;Max_cycle;Signal;HPM_P1;HPM_P2
2023/06/05 00:00:53;;;;;;;10.90;6.90;;;10.50;99.90;;;;;;5022652;28;20472;-58
2023/06/05 00:03:19;;;;;;;9.03;5.80;;;10.50;1.00;;;;;;5022159;28;20454;-58
2023/06/05 00:05:45;;;;;;;11.63;6.83;;;10.50;1.00;;;;;;5018863;28;20798;-60
2023/06/05 00:08:11;;;;;;;14.40;5.73;;;10.40;99.90;;;;;;5017253;28;20180;-57
2023/06/05 00:10:37;;;;;;;8.50;6.30;;;10.40;99.90;;;;;;5016983;28;20962;-57
2023/06/05 00:13:02;;;;;;;8.17;6.00;;;10.40;99.90;;;;;;5016943;28;20501;-57
2023/06/05 00:15:28;;;;;;;15.67;6.57;;;10.30;1.00;;;;;;5016683;28;20212;-57
2023/06/05 00:17:55;;;;;;;13.63;6.40;;;10.30;99.90;;;;;;5016835;28;20187;-57
2023/06/05 00:20:20;;;;;;;13.33;6.60;;;10.30;99.90;;;;;;5016948;28;20203;-57
2023/06/05 00:22:47;;;;;;;12.07;6.33;;;10.30;22.10;;;;;;5016393;28;20459;-57
2023/06/05 00:25:12;;;;;;;11.17;5.90;;;10.20;99.90;;;;;;5016610;28;20620;-57
2023/06/05 00:27:40;;;;;;;8.33;5.57;;;10.20;1.00;;;;;;5016672;28;20426;-57
2023/06/05 00:30:08;;;;;;;9.37;6.10;;;10.20;1.00;;;;;;5016830;28;20326;-57
2023/06/05 00:32:33;;;;;;;10.03;6.30;;;10.20;1.00;;;;;;5016908;28;20492;-58
2023/06/05 00:35:00;;;;;;;10.33;6.20;;;10.10;1.00;;;;;;5016260;28;20426;-57
2023/06/05 00:37:26;;;;;;;6.20;5.60;;;10.10;99.90;;;;;;5016569;28;20188;-57
2023/06/05 00:39:52;;;;;;;11.47;6.30;;;10.10;67.10;;;;;;5016555;28;20411;-57
2023/06/05 00:42:18;;;;;;;7.73;5.50;;;10.00;99.90;;;;;;5015491;28;20879;-57
2023/06/05 00:44:43;;;;;;;10.67;6.30;;;10.00;1.00;;;;;;5016581;28;20254;-57
2023/06/05 00:47:10;;;;;;;10.13;6.17;;;10.00;1.00;;;;;;5016645;28;20620;-56
2023/06/05 00:49:36;;;;;;;13.53;6.93;;;9.90;99.90;;;;;;5016217;28;20180;-57
2023/06/05 00:52:02;;;;;;;13.37;6.20;;;9.90;99.90;;;;;;5016335;28;20467;-57
2023/06/05 00:54:28;;;;;;;10.63;6.80;;;9.90;99.90;;;;;;5016578;28;20823;-57
2023/06/05 00:56:54;;;;;;;12.33;6.13;;;9.80;1.00;;;;;;5016108;28;20841;-57
2023/06/05 00:59:20;;;;;;;13.57;6.90;;;9.80;99.90;;;;;;5016298;28;20204;-57
2023/06/05 01:01:47;;;;;;;15.83;6.83;;;9.80;99.90;;;;;;5015760;28;20765;-57
2023/06/05 01:04:13;;;;;;;9.00;6.37;;;9.70;99.90;;;;;;5016050;28;20994;-57
2023/06/05 01:06:40;;;;;;;12.93;6.87;;;9.70;1.00;;;;;;5015855;28;20493;-57
2023/06/05 01:09:10;;;;;;;14.60;7.13;;;9.70;99.90;;;;;;5015941;28;20648;-57
2023/06/05 01:12:00;;;;;;;12.97;6.73;;;9.70;1.00;;;;;;5016053;28;20423;-57
2023/06/05 01:14:30;;;;;;;14.90;6.97;;;9.60;99.90;;;;;;5012466;28;20517;-57
2023/06/05 01:17:00;;;;;;;11.60;7.37;;;9.60;99.90;;;;;;5015503;28;20403;-57
2023/06/05 01:19:28;;;;;;;14.77;7.70;;;9.60;1.00;;;;;;5016146;28;20533;-57
2023/06/05 01:22:01;;;;;;;11.73;7.70;;;9.50;1.00;;;;;;5015641;28;20420;-57
2023/06/05 01:24:30;;;;;;;11.50;7.80;;;9.50;1.00;;;;;;5015757;28;20814;-57
2023/06/05 01:27:03;;;;;;;11.13;6.60;;;9.50;6.10;;;;;;5015336;28;20423;-57
2023/06/05 01:29:34;;;;;;;17.33;7.40;;;9.50;76.80;;;;;;5015455;28;20907;-57
2023/06/05 01:32:06;;;;;;;14.83;7.50;;;9.40;20.10;;;;;;5015507;28;20419;-57
2023/06/05 01:34:33;;;;;;;11.30;6.57;;;9.40;1.00;;;;;;5015370;28;20466;-57
2023/06/05 01:37:01;;;;;;;10.90;7.00;;;9.30;1.00;;;;;;5015357;28;20483;-57
2023/06/05 01:39:27;;;;;;;15.23;7.67;;;9.30;1.00;;;;;;5015207;28;20433;-57
2023/06/05 01:41:54;;;;;;;11.50;7.10;;;9.30;34.40;;;;;;5015105;28;20451;-57
2023/06/05 01:44:21;;;;;;;13.37;6.80;;;9.30;99.90;;;;;;5015528;28;20474;-58
2023/06/05 01:46:47;;;;;;;15.23;8.17;;;9.20;83.90;;;;;;5014982;28;20415;-57
2023/06/05 01:49:13;;;;;;;13.03;6.90;;;9.20;66.70;;;;;;5015300;28;20499;-56
2023/06/05 01:51:39;;;;;;;15.47;7.60;;;9.10;99.90;;;;;;5014643;28;20553;-57
2023/06/05 01:54:05;;;;;;;10.67;7.97;;;9.10;99.90;;;;;;5014551;28;20173;-57
2023/06/05 01:56:32;;;;;;;13.23;7.07;;;9.10;99.90;;;;;;5015285;28;20186;-57
2023/06/05 01:58:58;;;;;;;14.27;8.40;;;9.10;99.90;;;;;;5015076;28;20458;-57
2023/06/05 02:01:23;;;;;;;12.17;7.70;;;9.10;99.90;;;;;;5014777;28;20824;-57
2023/06/05 02:03:49;;;;;;;13.43;7.70;;;9.10;99.90;;;;;;5015149;28;20208;-57
2023/06/05 02:06:16;;;;;;;17.03;8.27;;;9.10;99.90;;;;;;5014967;28;20180;-57
2023/06/05 02:08:42;;;;;;;10.97;7.50;;;9.00;99.90;;;;;;5014855;28;20427;-57
2023/06/05 02:11:10;;;;;;;16.07;7.53;;;9.00;99.90;;;;;;5014511;28;20971;-57
2023/06/05 02:13:40;;;;;;;12.50;7.63;;;9.00;99.90;;;;;;5014593;28;20861;-57
2023/06/05 02:16:09;;;;;;;14.07;8.03;;;9.00;99.90;;;;;;5014082;28;20981;-57
2023/06/05 02:18:37;;;;;;;15.77;8.27;;;8.90;99.90;;;;;;5014859;28;20416;-57
2023/06/05 02:21:03;;;;;;;13.77;7.33;;;8.90;99.90;;;;;;5014642;28;20914;-57
2023/06/05 02:23:29;;;;;;;12.03;8.17;;;8.90;99.90;;;;;;5014814;28;20463;-57
2023/06/05 02:25:55;;;;;;;19.60;8.30;;;8.90;99.90;;;;;;5014606;28;20427;-57
2023/06/05 02:28:21;;;;;;;13.43;8.30;;;8.90;99.90;;;;;;5014464;28;20429;-57
2023/06/05 02:30:47;;;;;;;13.17;8.37;;;8.90;99.90;;;;;;5014762;28;20410;-57
2023/06/05 02:33:14;;;;;;;14.37;9.30;;;8.90;99.90;;;;;;5013987;28;20606;-56
2023/06/05 02:35:40;;;;;;;15.37;8.70;;;8.80;99.90;;;;;;5014568;28;20481;-57
2023/06/05 02:38:10;;;;;;;14.37;7.77;;;8.80;99.90;;;;;;5014661;28;20431;-57
2023/06/05 02:40:35;;;;;;;17.00;8.50;;;8.80;99.90;;;;;;5014555;28;20442;-57
2023/06/05 02:43:01;;;;;;;19.40;9.00;;;8.80;99.90;;;;;;5014293;28;21003;-57
2023/06/05 02:45:27;;;;;;;15.67;9.03;;;8.70;99.90;;;;;;5014468;28;20191;-57
2023/06/05 02:47:53;;;;;;;18.20;8.87;;;8.70;99.90;;;;;;5014483;28;20419;-56
2023/06/05 02:50:18;;;;;;;14.53;9.50;;;8.70;99.90;;;;;;5014499;28;20636;-56
2023/06/05 02:52:44;;;;;;;13.20;8.50;;;8.70;99.90;;;;;;5014020;28;20759;-57
2023/06/05 02:55:10;;;;;;;12.20;7.67;;;8.70;99.90;;;;;;5014427;28;20242;-56
2023/06/05 02:57:41;;;;;;;18.40;9.27;;;8.70;99.90;;;;;;5014451;28;20411;-56
2023/06/05 03:00:16;;;;;;;12.87;9.10;;;8.70;99.90;;;;;;5014378;28;20180;-57
2023/06/05 03:02:42;;;;;;;17.80;9.70;;;8.70;99.90;;;;;;5013748;28;20518;-57
2023/06/05 03:05:08;;;;;;;18.93;9.03;;;8.60;99.90;;;;;;5013557;28;20420;-57
2023/06/05 03:07:34;;;;;;;16.33;9.40;;;8.60;99.90;;;;;;5013907;28;20460;-56
2023/06/05 03:10:01;;;;;;;16.43;9.10;;;8.60;99.90;;;;;;5014367;28;20915;-56
2023/06/05 03:12:26;;;;;;;14.20;9.30;;;8.60;99.90;;;;;;5014130;28;20653;-56
2023/06/05 03:14:52;;;;;;;15.00;8.77;;;8.60;99.90;;;;;;5014025;28;20446;-57
2023/06/05 03:17:17;;;;;;;13.50;8.80;;;8.60;99.90;;;;;;5014424;28;20184;-57
2023/06/05 03:19:43;;;;;;;16.40;9.70;;;8.60;99.90;;;;;;5014128;28;20180;-56
2023/06/05 03:22:09;;;;;;;14.60;8.90;;;8.60;99.90;;;;;;5014095;28;20180;-57
2023/06/05 03:24:37;;;;;;;13.93;9.53;;;8.60;99.90;;;;;;5013996;28;20215;-57
2023/06/05 03:27:04;;;;;;;17.50;10.50;;;8.60;99.90;;;;;;5014069;28;20215;-57
2023/06/05 03:29:30;;;;;;;16.50;10.20;;;8.60;99.90;;;;;;5013859;28;20899;-57
2023/06/05 03:31:55;;;;;;;20.23;9.20;;;8.60;99.90;;;;;;5014095;28;20421;-57
2023/06/05 03:34:25;;;;;;;15.93;8.70;;;8.60;99.90;;;;;;5014253;28;20188;-56
2023/06/05 03:36:51;;;;;;;13.80;9.60;;;8.70;99.90;;;;;;5013893;28;20536;-57
2023/06/05 03:39:17;;;;;;;18.83;9.63;;;8.70;99.90;;;;;;5013637;28;20502;-57
2023/06/05 03:41:43;;;;;;;16.43;9.90;;;8.70;99.90;;;;;;5013636;28;20526;-57
2023/06/05 03:44:08;;;;;;;21.37;10.80;;;8.70;99.90;;;;;;5013745;28;20212;-57
2023/06/05 03:46:35;;;;;;;19.57;10.40;;;8.70;99.90;;;;;;5013349;28;20544;-57
2023/06/05 03:49:05;;;;;;;18.87;10.63;;;8.80;99.90;;;;;;5013549;28;20195;-56
2023/06/05 03:51:31;;;;;;;21.17;9.90;;;8.80;99.90;;;;;;5013852;28;20489;-56
2023/06/05 03:54:00;;;;;;;18.47;10.00;;;8.90;99.90;;;;;;5013836;28;20403;-57
2023/06/05 03:56:33;;;;;;;19.77;10.77;;;8.90;99.90;;;;;;5013968;28;20188;-56
2023/06/05 03:59:08;;;;;;;15.07;9.27;;;8.90;99.90;;;;;;5013983;28;20419;-57
2023/06/05 04:01:36;;;;;;;24.70;10.90;;;9.00;99.90;;;;;;5013826;28;20833;-57
2023/06/05 04:04:05;;;;;;;20.10;10.60;;;9.10;99.90;;;;;;5013658;28;20459;-56
2023/06/05 04:06:32;;;;;;;19.60;10.50;;;9.10;99.90;;;;;;5013987;28;20423;-56
2023/06/05 04:08:58;;;;;;;23.23;10.87;;;9.10;99.90;;;;;;5013705;28;20427;-56
2023/06/05 04:11:26;;;;;;;24.07;11.10;;;9.20;99.90;;;;;;5013286;28;20911;-56
2023/06/05 04:13:53;;;;;;;22.57;11.40;;;9.20;99.90;;;;;;5013688;28;20536;-56
2023/06/05 04:16:19;;;;;;;20.47;10.13;;;9.20;99.90;;;;;;5014235;28;20415;-56
2023/06/05 04:18:45;;;;;;;23.53;11.50;;;9.30;99.90;;;;;;5016757;28;20902;-57
2023/06/05 04:21:10;;;;;;;21.90;11.20;;;9.40;99.90;;;;;;5016623;28;20682;-56
2023/06/05 04:23:36;;;;;;;17.57;11.60;;;9.40;99.90;;;;;;5016725;28;20212;-56
2023/06/05 04:26:02;;;;;;;18.97;10.60;;;9.50;99.90;;;;;;5017073;28;20185;-57
2023/06/05 04:28:29;;;;;;;20.67;10.63;;;9.50;99.90;;;;;;5016826;28;20235;-57
2023/06/05 04:30:58;;;;;;;20.37;11.40;;;9.60;99.90;;;;;;5016854;28;20442;-57
2023/06/05 04:33:23;;;;;;;21.13;11.23;;;9.70;99.90;;;;;;5016776;28;20435;-57
2023/06/05 04:35:49;;;;;;;20.53;12.37;;;9.80;99.90;;;;;;5016584;28;20503;-57
2023/06/05 04:38:15;;;;;;;19.27;11.30;;;9.90;99.90;;;;;;5016650;28;20191;-57
2023/06/05 04:40:40;;;;;;;24.33;11.00;;;10.00;99.90;;;;;;5016678;28;20184;-57
2023/06/05 04:43:08;;;;;;;20.37;10.70;;;10.10;99.90;;;;;;5016260;28;20311;-57
2023/06/05 04:45:34;;;;;;;20.27;10.87;;;10.30;99.90;;;;;;5016405;28;20191;-57
2023/06/05 04:48:00;;;;;;;17.90;10.77;;;10.40;99.90;;;;;;5016401;28;20415;-57
2023/06/05 04:50:28;;;;;;;18.43;10.80;;;10.60;99.90;;;;;;5016130;28;20184;-57
2023/06/05 04:52:54;;;;;;;19.07;11.27;;;10.70;99.90;;;;;;5015865;28;20243;-58
2023/06/05 04:55:20;;;;;;;20.40;10.93;;;10.90;99.90;;;;;;5016428;28;20782;-57
2023/06/05 04:57:48;;;;;;;22.43;11.43;;;11.00;99.90;;;;;;5016318;28;20192;-57
2023/06/05 05:00:17;;;;;;;16.60;10.57;;;11.10;99.90;;;;;;5016175;28;20447;-57
2023/06/05 05:02:42;;;;;;;20.30;10.23;;;11.20;99.90;;;;;;5016010;28;20426;-58
2023/06/05 05:05:08;;;;;;;18.80;10.87;;;11.40;99.90;;;;;;5015605;28;20415;-58
2023/06/05 05:07:35;;;;;;;19.13;11.70;;;11.50;99.90;;;;;;5016163;28;20192;-58
2023/06/05 05:10:01;;;;;;;19.60;11.23;;;11.60;99.90;;;;;;5016299;28;20495;-58
2023/06/05 05:12:26;;;;;;;17.03;11.23;;;11.80;99.90;;;;;;5016032;28;20482;-58
2023/06/05 05:14:52;;;;;;;18.63;10.90;;;11.80;1.00;;;;;;5016472;28;20427;-62
2023/06/05 05:17:19;;;;;;;16.50;10.40;;;12.00;1.00;;;;;;5018246;28;20191;-58
2023/06/05 05:19:45;;;;;;;21.53;11.30;;;12.20;1.00;;;;;;5018979;28;20184;-58
2023/06/05 05:22:10;;;;;;;14.47;9.90;;;12.40;1.00;;;;;;5018542;28;20531;-57
2023/06/05 05:24:36;;;;;;;16.93;11.13;;;12.60;1.00;;;;;;5018451;28;20463;-62
2023/06/05 05:27:02;;;;;;;16.40;10.50;;;12.70;99.90;;;;;;5017144;28;20180;-58
2023/06/05 05:29:29;;;;;;;20.07;11.30;;;12.80;1.00;;;;;;5015873;28;20649;-58
2023/06/05 05:31:55;;;;;;;17.50;11.50;;;13.00;99.90;;;;;;5015563;28;20847;-58
2023/06/05 05:34:21;;;;;;;18.10;10.40;;;13.10;99.90;;;;;;5015892;28;20510;-58
2023/06/05 05:36:46;;;;;;;15.13;9.83;;;13.30;1.00;;;;;;5015778;28;20415;-57
2023/06/05 05:39:12;;;;;;;20.37;10.67;;;13.50;99.90;;;;;;5015524;28;20424;-59
2023/06/05 05:41:37;;;;;;;21.47;10.83;;;13.60;88.10;;;;;;5015118;28;20635;-59
2023/06/05 05:44:03;;;;;;;16.53;10.97;;;13.80;99.90;;;;;;5014911;28;20212;-59
2023/06/05 05:46:29;;;;;;;17.87;11.00;;;14.00;1.00;;;;;;5014983;28;20184;-59
2023/06/05 05:48:54;;;;;;;24.43;11.47;;;14.20;99.90;;;;;;5015441;28;20180;-60
2023/06/05 05:51:21;;;;;;;18.33;10.47;;;14.40;99.90;;;;;;5014914;28;20202;-59
2023/06/05 05:53:46;;;;;;;19.70;11.13;;;14.60;98.70;;;;;;5015533;28;20173;-59
2023/06/05 05:56:12;;;;;;;15.53;11.03;;;14.70;51.10;;;;;;5014923;28;20419;-61
2023/06/05 05:58:37;;;;;;;16.17;9.80;;;15.00;23.30;;;;;;5014553;28;20667;-60
2023/06/05 06:01:03;;;;;;;20.60;10.70;;;15.10;8.10;;;;;;5015004;28;20203;-59
2023/06/05 06:03:29;;;;;;;19.60;9.87;;;15.20;1.00;;;;;;5014965;28;20215;-60
2023/06/05 06:05:56;;;;;;;15.37;10.17;;;15.40;1.00;;;;;;5014714;28;20194;-62
2023/06/05 06:08:22;;;;;;;18.43;9.67;;;15.60;1.00;;;;;;5015272;28;20424;-60
2023/06/05 06:10:48;;;;;;;15.90;10.60;;;15.70;1.00;;;;;;5015038;28;20470;-62
2023/06/05 06:13:13;;;;;;;14.93;9.47;;;15.90;1.00;;;;;;5014909;28;20901;-61
2023/06/05 06:15:39;;;;;;;13.93;9.50;;;16.10;1.00;;;;;;5014887;28;20261;-61
2023/06/05 06:18:05;;;;;;;14.77;8.73;;;16.40;1.00;;;;;;5014243;28;20574;-59
2023/06/05 06:20:33;;;;;;;15.80;8.83;;;16.70;1.00;;;;;;5014219;28;20514;-60
2023/06/05 06:22:59;;;;;;;13.33;8.33;;;16.90;1.00;;;;;;5014443;28;20468;-59
2023/06/05 06:25:28;;;;;;;13.10;9.23;;;17.20;1.00;;;;;;5014385;28;20424;-60
2023/06/05 06:27:54;;;;;;;14.17;9.73;;;17.30;1.00;;;;;;5014346;28;20186;-60
2023/06/05 06:30:21;;;;;;;14.60;9.20;;;17.50;1.00;;;;;;5014510;28;20424;-59
2023/06/05 06:32:47;;;;;;;12.83;8.80;;;17.70;1.00;;;;;;5014250;28;20938;-60
2023/06/05 06:35:13;;;;;;;15.70;10.00;;;17.80;1.00;;;;;;5014513;28;20740;-59
2023/06/05 06:37:40;;;;;;;13.60;9.20;;;17.90;1.00;;;;;;5014197;28;20410;-60
2023/06/05 06:40:10;;;;;;;19.73;9.00;;;18.00;1.00;;;;;;5013502;28;20422;-59
2023/06/05 06:42:37;;;;;;;15.13;8.70;;;18.10;1.00;;;;;;5014151;28;20432;-61
2023/06/05 06:45:04;;;;;;;10.00;7.40;;;18.30;1.00;;;;;;5014385;28;20479;-60
2023/06/05 06:47:30;;;;;;;12.20;7.73;;;18.50;1.00;;;;;;5013793;28;20476;-59
2023/06/05 06:49:56;;;;;;;11.50;7.10;;;18.70;1.00;;;;;;5007377;28;20417;-54
2023/06/05 06:52:22;;;;;;;16.70;6.77;;;18.90;1.00;;;;;;4995338;28;20474;-60
2023/06/05 06:54:48;;;;;;;20.47;7.77;;;18.90;1.00;;;;;;5014158;28;20421;-59
2023/06/05 06:57:13;;;;;;;13.53;7.20;;;19.10;1.00;;;;;;5013384;28;20457;-60
2023/06/05 06:59:40;;;;;;;14.03;7.30;;;19.40;1.00;;;;;;5013104;28;20403;-59
2023/06/05 07:02:17;;;;;;;12.20;6.60;;;19.60;1.00;;;;;;5013119;28;20469;-57
2023/06/05 07:04:44;;;;;;;13.50;6.47;;;19.90;1.00;;;;;;5013782;28;20210;-60
2023/06/05 07:07:12;;;;;;;9.77;5.50;;;20.10;1.00;;;;;;5013863;28;20779;-61
2023/06/05 07:09:38;;;;;;;10.73;6.63;;;20.30;1.00;;;;;;5013763;28;20425;-59
2023/06/05 07:12:05;;;;;;;9.03;5.70;;;20.40;1.00;;;;;;5013363;28;20426;-61
2023/06/05 07:14:32;;;;;;;22.13;5.30;;;20.60;1.00;;;;;;5013755;28;20918;-60
2023/06/05 07:16:59;;;;;;;11.40;5.80;;;20.80;1.00;;;;;;5013761;28;20427;-61
2023/06/05 07:19:26;;;;;;;17.97;6.40;;;21.00;1.00;;;;;;5013618;28;20411;-57
2023/06/05 07:21:52;;;;;;;10.20;5.20;;;21.10;1.00;;;;;;5013866;28;20425;-58
2023/06/05 07:24:18;;;;;;;13.10;5.30;;;21.20;1.00;;;;;;5012997;28;20458;-57
2023/06/05 07:26:44;;;;;;;9.17;5.60;;;21.50;1.00;;;;;;5013565;28;20252;-57
2023/06/05 07:29:10;;;;;;;12.30;5.40;;;21.60;1.00;;;;;;5013925;28;20447;-57
2023/06/05 07:31:36;;;;;;;15.33;6.37;;;21.70;1.00;;;;;;5013938;28;20484;-58
2023/06/05 07:34:02;;;;;;;16.07;6.13;;;21.80;1.00;;;;;;5013936;28;20279;-58
2023/06/05 07:36:29;;;;;;;10.27;5.60;;;22.20;1.00;;;;;;5013494;28;20188;-57
2023/06/05 07:38:56;;;;;;;9.33;5.27;;;22.30;1.00;;;;;;5013461;28;20415;-58
2023/06/05 07:41:21;;;;;;;12.13;5.00;;;22.50;1.00;;;;;;5013305;28;20428;-57
2023/06/05 07:43:47;;;;;;;11.00;4.97;;;22.50;1.00;;;;;;5013158;28;20494;-57
2023/06/05 07:46:14;;;;;;;21.23;5.40;;;22.40;1.00;;;;;;5013354;28;20183;-58
2023/06/05 07:48:40;;;;;;;7.60;5.20;;;22.60;1.00;;;;;;5013449;28;20211;-57
2023/06/05 07:51:08;;;;;;;14.00;4.20;;;22.60;1.00;;;;;;5013608;28;20761;-58
2023/06/05 07:53:34;;;;;;;10.60;4.57;;;22.90;1.00;;;;;;5016933;28;20578;-58
2023/06/05 07:56:00;;;;;;;8.30;4.57;;;23.10;1.00;;;;;;5017237;28;20449;-59
2023/06/05 07:58:27;;;;;;;9.63;4.10;;;23.20;1.00;;;;;;5016689;28;20891;-59
2023/06/05 08:00:53;;;;;;;5.43;3.67;;;23.40;1.00;;;;;;5016863;28;20781;-58
2023/06/05 08:03:19;;;;;;;11.00;4.00;;;23.60;1.00;;;;;;5016915;28;20874;-58
2023/06/05 08:05:46;;;;;;;10.13;4.37;;;23.70;1.00;;;;;;5016874;28;20504;-56
2023/06/05 08:08:12;;;;;;;11.60;4.27;;;23.90;1.00;;;;;;5015410;28;20783;-58
2023/06/05 08:10:38;;;;;;;7.20;4.00;;;24.30;1.00;;;;;;5016627;28;20424;-56
2023/06/05 08:13:03;;;;;;;9.23;5.03;;;24.40;1.00;;;;;;5016993;28;20182;-55
2023/06/05 08:15:29;;;;;;;7.83;4.07;;;24.60;1.00;;;;;;5016709;28;20193;-58
2023/06/05 08:17:54;;;;;;;6.93;4.00;;;24.50;99.90;;;;;;5016741;28;20521;-58
2023/06/05 08:20:20;;;;;;;8.77;4.90;;;24.20;99.90;;;;;;5016237;28;20187;-57
2023/06/05 08:22:46;;;;;;;9.87;3.80;;;24.20;99.90;;;;;;5016594;28;20180;-57
2023/06/05 08:25:11;;;;;;;8.33;4.07;;;24.20;99.90;;;;;;5016369;28;20643;-54
2023/06/05 08:27:37;;;;;;;6.03;4.43;;;24.40;99.90;;;;;;5016256;28;20179;-54
2023/06/05 08:30:03;;;;;;;10.10;4.20;;;24.50;99.90;;;;;;5016098;28;20638;-54
2023/06/05 08:32:29;;;;;;;7.47;3.90;;;24.30;99.90;;;;;;5016037;28;20195;-54
2023/06/05 08:34:54;;;;;;;7.27;3.83;;;24.60;99.90;;;;;;5016728;28;20753;-54
2023/06/05 08:37:20;;;;;;;6.70;4.17;;;24.90;99.90;;;;;;5015924;28;20190;-55
2023/06/05 08:39:46;;;;;;;4.70;3.80;;;25.20;99.90;;;;;;5016259;28;20636;-55
2023/06/05 08:42:17;;;;;;;7.77;3.93;;;25.10;99.90;;;;;;5015970;28;20202;-53
2023/06/05 08:44:47;;;;;;;8.10;3.77;;;25.40;99.90;;;;;;5016142;28;20472;-54
2023/06/05 08:47:14;;;;;;;7.00;3.13;;;25.50;99.90;;;;;;5016180;28;20998;-55
2023/06/05 08:49:41;;;;;;;9.20;3.20;;;25.60;99.90;;;;;;5015874;28;20423;-56
2023/06/05 08:52:08;;;;;;;5.90;3.80;;;25.80;99.90;;;;;;5015937;28;20466;-56
2023/06/05 08:54:37;;;;;;;9.67;4.43;;;26.10;99.90;;;;;;5015947;28;20480;-57
2023/06/05 08:57:06;;;;;;;7.33;3.47;;;26.40;99.90;;;;;;5015280;28;20422;-55
2023/06/05 08:59:32;;;;;;;11.83;3.60;;;26.40;99.90;;;;;;5015911;28;20451;-58
2023/06/05 09:01:58;;;;;;;7.60;3.63;;;26.60;99.90;;;;;;5015375;28;20819;-56
2023/06/05 09:04:29;;;;;;;4.10;3.20;;;26.80;99.90;;;;;;5015696;28;20462;-58
2023/06/05 09:06:56;;;;;;;5.97;3.50;;;27.10;99.90;;;;;;5015725;28;20514;-56
2023/06/05 09:09:22;;;;;;;16.83;3.47;;;27.20;99.90;;;;;;5015482;28;20439;-56
2023/06/05 09:12:04;;;;;;;8.10;3.33;;;27.30;99.90;;;;;;5015577;28;20517;-56
2023/06/05 09:14:33;;;;;;;5.93;3.30;;;27.20;99.90;;;;;;5015731;28;20473;-56
2023/06/05 09:17:02;;;;;;;4.83;4.03;;;27.20;99.90;;;;;;5015405;28;20419;-56
2023/06/05 09:19:43;;;;;;;5.53;3.60;;;27.10;99.90;;;;;;5015059;28;20431;-57
2023/06/05 09:22:09;;;;;;;8.03;3.20;;;27.20;99.90;;;;;;5015452;28;20439;-54
2023/06/05 09:24:36;;;;;;;3.73;3.30;;;27.50;99.90;;;;;;5015163;28;20469;-57
2023/06/05 09:27:01;;;;;;;7.90;3.00;;;28.00;99.90;;;;;;5015433;28;20548;-55
2023/06/05 09:29:28;;;;;;;6.30;2.90;;;28.30;99.90;;;;;;5014163;28;20506;-56
2023/06/05 09:31:57;;;;;;;4.40;3.23;;;28.40;99.90;;;;;;5015299;28;20857;-54
2023/06/05 09:34:25;;;;;;;4.80;3.67;;;28.50;99.90;;;;;;5015117;28;20419;-56
2023/06/05 09:36:51;;;;;;;5.10;3.00;;;28.70;99.90;;;;;;5015144;28;20430;-56
2023/06/05 09:39:19;;;;;;;7.13;3.57;;;28.80;99.90;;;;;;5015041;28;20926;-56
2023/06/05 09:41:49;;;;;;;11.60;3.30;;;28.60;99.90;;;;;;5014954;28;20949;-54
2023/06/05 09:44:15;;;;;;;7.80;3.30;;;28.80;99.90;;;;;;5014595;28;20837;-55
2023/06/05 09:47:01;;;;;;;7.23;3.37;;;28.90;99.90;;;;;;5014559;28;20783;-56
2023/06/05 09:49:47;;;;;;;5.03;3.00;;;29.10;99.90;;;;;;5014373;28;20887;-56
2023/06/05 09:52:14;;;;;;;5.10;3.20;;;29.50;99.90;;;;;;5014615;28;20525;-56
2023/06/05 09:54:54;;;;;;;12.70;3.53;;;29.40;99.90;;;;;;5014488;28;20891;-56
2023/06/05 09:57:20;;;;;;;5.03;3.37;;;29.20;99.90;;;;;;5014819;28;20898;-56
2023/06/05 09:59:54;;;;;;;15.77;3.10;;;29.30;99.90;;;;;;5014764;28;20542;-56
2023/06/05 10:02:25;;;;;;;7.80;3.50;;;29.10;99.90;;;;;;5014371;28;20937;-55
2023/06/05 10:04:59;;;;;;;4.80;3.20;;;29.50;99.90;;;;;;5014737;28;20521;-55
2023/06/05 10:07:26;;;;;;;5.35;3.20;;;29.50;99.90;;;;;;5013735;28;20419;-56
2023/06/05 10:09:52;;;;;;;10.93;3.13;;;29.50;99.90;;;;;;5014421;28;20552;-56
2023/06/05 10:12:19;;;;;;;6.73;3.73;;;29.80;99.90;;;;;;5014624;28;20455;-56
2023/06/05 10:14:47;;;;;;;5.90;3.30;;;29.90;99.90;;;;;;5013395;28;20423;-57
2023/06/05 10:17:13;;;;;;;5.20;3.30;;;29.60;99.90;;;;;;5014071;28;20836;-56
2023/06/05 10:19:43;;;;;;;7.53;2.77;;;29.60;99.90;;;;;;5014129;28;20412;-57
2023/06/05 10:22:11;;;;;;;6.70;3.03;;;29.80;99.90;;;;;;5014302;28;20419;-57
2023/06/05 10:24:42;;;;;;;7.20;3.30;;;29.90;99.90;;;;;;5013759;28;20462;-57
2023/06/05 10:27:11;;;;;;;4.23;3.13;;;30.10;99.90;;;;;;5014348;28;20774;-56
2023/06/05 10:29:51;;;;;;;6.27;3.03;;;30.10;99.90;;;;;;5014274;28;20485;-57
2023/06/05 10:32:28;;;;;;;5.30;2.73;;;30.20;99.90;;;;;;5014310;28;20461;-57
2023/06/05 10:35:30;;;;;;;4.47;3.43;;;30.40;99.90;;;;;;5013959;28;20429;-57
2023/06/05 10:37:58;;;;;;;9.97;3.60;;;30.30;99.90;;;;;;5014377;28;20466;-57
2023/06/05 10:40:25;;;;;;;6.27;2.97;;;30.50;99.90;;;;;;5013617;28;20446;-57
2023/06/05 10:42:51;;;;;;;5.90;3.03;;;30.50;99.90;;;;;;5013655;28;20526;-56
2023/06/05 10:45:30;;;;;;;7.00;2.90;;;30.80;99.90;;;;;;5013490;28;20430;-57
2023/06/05 10:47:56;;;;;;;4.37;3.10;;;30.90;99.90;;;;;;5013453;28;20268;-57
2023/06/05 10:50:25;;;;;;;4.80;3.53;;;31.00;99.90;;;;;;5013392;28;20515;-57
2023/06/05 10:52:52;;;;;;;12.17;9.13;;;31.20;99.90;;;;;;5013230;28;20554;-57
2023/06/05 10:55:20;;;;;;;6.50;3.50;;;31.20;99.90;;;;;;5013428;28;20419;-56
2023/06/05 10:58:00;;;;;;;9.70;3.23;;;31.40;99.90;;;;;;5013492;28;20418;-57
2023/06/05 11:00:33;;;;;;;5.37;3.07;;;31.50;99.90;;;;;;5013668;28;20415;-57
2023/06/05 11:03:00;;;;;;;3.77;3.10;;;31.60;99.90;;;;;;5013340;28;20455;-57
2023/06/05 11:05:26;;;;;;;6.63;3.00;;;31.90;99.90;;;;;;5013729;28;20445;-55
2023/06/05 11:08:10;;;;;;;5.87;3.33;;;32.00;99.90;;;;;;5013219;28;20446;-58
2023/06/05 11:10:35;;;;;;;6.20;3.30;;;32.00;99.90;;;;;;5013908;28;20426;-57
2023/06/05 11:13:02;;;;;;;9.10;3.03;;;32.20;99.90;;;;;;5013438;28;20415;-58
2023/06/05 11:15:41;;;;;;;5.83;2.80;;;32.40;99.90;;;;;;5013348;28;20196;-57
2023/06/05 11:18:26;;;;;;;3.57;2.73;;;32.20;99.90;;;;;;5013339;28;20423;-56
2023/06/05 11:20:52;;;;;;;3.70;3.13;;;32.10;99.90;;;;;;5013535;28;20423;-57
2023/06/05 11:23:17;;;;;;;5.10;2.97;;;31.80;99.90;;;;;;5013626;28;20973;-55
2023/06/05 11:25:43;;;;;;;5.70;2.90;;;31.90;99.90;;;;;;5014720;28;20184;-55
2023/06/05 11:28:09;;;;;;;7.87;2.60;;;31.80;99.90;;;;;;5017140;28;20191;-56
2023/06/05 11:30:45;;;;;;;8.73;2.80;;;31.90;99.90;;;;;;5017249;28;20234;-57
2023/06/05 11:33:14;;;;;;;5.43;2.80;;;32.20;99.90;;;;;;5017024;28;20399;-59
2023/06/05 11:35:42;;;;;;;4.23;2.50;;;32.00;99.90;;;;;;5017198;28;20443;-56
2023/06/05 11:38:18;;;;;;;8.23;3.30;;;32.10;99.90;;;;;;5017245;28;20419;-55
2023/06/05 11:40:45;;;;;;;7.60;3.40;;;32.40;99.90;;;;;;5016959;28;20894;-56
2023/06/05 11:43:15;;;;;;;6.33;2.70;;;31.90;99.90;;;;;;5017094;28;20466;-58
2023/06/05 11:45:49;;;;;;;5.20;2.70;;;31.60;99.90;;;;;;5016960;28;20799;-57
2023/06/05 11:48:15;;;;;;;3.57;3.17;;;31.70;99.90;;;;;;5016783;28;20471;-57
2023/06/05 11:50:53;;;;;;;8.00;3.07;;;31.50;99.90;;;;;;5016790;28;20507;-59
2023/06/05 11:53:20;;;;;;;7.17;3.10;;;30.60;99.90;;;;;;5017110;28;20248;-57
2023/06/05 11:58:22;;;;;;;4.73;3.37;;;28.40;99.90;;;;;;5016906;28;20455;-55
2023/06/05 12:00:47;;;;;;;12.10;3.40;;;28.70;99.90;;;;;;5016900;28;20423;-58
2023/06/05 12:03:20;;;;;;;7.37;3.47;;;29.80;99.90;;;;;;5016185;28;20466;-55
2023/06/05 12:05:48;;;;;;;6.77;3.60;;;30.60;99.90;;;;;;5016365;28;20188;-54
2023/06/05 12:08:27;;;;;;;6.83;3.70;;;31.20;99.90;;;;;;5016959;28;20442;-57
2023/06/05 12:10:55;;;;;;;4.10;2.97;;;31.50;99.90;;;;;;5016689;28;20509;-57
2023/06/05 12:13:21;;;;;;;7.53;3.30;;;31.60;99.90;;;;;;5016612;28;20836;-55
2023/06/05 12:15:59;;;;;;;9.93;3.77;;;31.80;99.90;;;;;;5016006;28;20430;-56
2023/06/05 12:18:33;;;;;;;4.90;3.33;;;31.50;99.90;;;;;;5013363;28;20180;-55
2023/06/05 12:20:59;;;;;;;4.50;2.90;;;31.10;99.90;;;;;;5016390;28;20756;-55
2023/06/05 12:23:25;;;;;;;3.90;3.00;;;30.80;99.90;;;;;;5016492;28;20528;-58
2023/06/05 12:26:04;;;;;;;6.23;3.27;;;30.30;99.90;;;;;;5016456;28;20423;-58
2023/06/05 12:28:31;;;;;;;4.50;3.13;;;29.70;99.90;;;;;;5016513;28;20411;-57
2023/06/05 12:30:57;;;;;;;4.77;3.27;;;29.80;99.90;;;;;;5016281;28;20445;-57
2023/06/05 12:33:27;;;;;;;3.80;3.03;;;30.30;99.90;;;;;;5016326;28;20422;-56
2023/06/05 12:36:10;;;;;;;4.03;3.17;;;31.20;99.90;;;;;;5016342;28;20420;-56
2023/06/05 12:38:42;;;;;;;9.20;3.37;;;32.00;99.90;;;;;;5015299;28;20399;-55
2023/06/05 12:41:08;;;;;;;5.37;2.70;;;32.60;99.90;;;;;;5016314;28;20493;-57
2023/06/05 12:43:34;;;;;;;4.60;3.03;;;32.60;99.90;;;;;;5016164;28;20458;-59
2023/06/05 12:46:00;;;;;;;7.53;2.70;;;32.50;99.90;;;;;;5016022;28;20486;-56
2023/06/05 12:48:26;;;;;;;5.43;2.70;;;33.10;99.90;;;;;;5015669;28;20450;-55
2023/06/05 12:50:53;;;;;;;6.57;2.60;;;33.40;99.90;;;;;;5015781;28;20826;-57